sensor_id;sensor_type;location;lat;lon;timestamp;P1;durP1;ratioP1;P2;durP2;ratioP2
9409;SDS011;4744;52.576;13.568;2023-01-30T00:00:50;6.85;;;6.15;;
9409;SDS011;4744;52.576;13.568;2023-01-30T00:03:17;7.40;;;6.70;;
9409;SDS011;4744;52.576;13.568;2023-01-30T00:05:46;7.50;;;6.80;;
9409;SDS011;4744;52.576;13.568;2023-01-30T00:08:13;6.55;;;5.95;;
9409;SDS011;4744;52.576;13.568;2023-01-30T00:10:40;7.47;;;6.50;;
9409;SDS011;4744;52.576;13.568;2023-01-30T00:13:07;7.00;;;6.30;;
9409;SDS011;4744;52.576;13.568;2023-01-30T00:15:34;7.80;;;6.97;;
9409;SDS011;4744;52.576;13.568;2023-01-30T00:18:02;7.10;;;6.40;;
9409;SDS011;4744;52.576;13.568;2023-01-30T00:20:29;7.65;;;6.55;;
9409;SDS011;4744;52.576;13.568;2023-01-30T00:22:57;8.30;;;7.03;;
9409;SDS011;4744;52.576;13.568;2023-01-30T00:25:25;8.38;;;6.75;;
9409;SDS011;4744;52.576;13.568;2023-01-30T00:27:52;7.63;;;6.75;;
9409;SDS011;4744;52.576;13.568;2023-01-30T00:30:19;8.32;;;7.00;;
9409;SDS011;4744;52.576;13.568;2023-01-30T00:32:46;9.25;;;7.47;;
9409;SDS011;4744;52.576;13.568;2023-01-30T00:35:13;9.23;;;6.90;;
9409;SDS011;4744;52.576;13.568;2023-01-30T00:37:43;7.68;;;6.88;;
9409;SDS011;4744;52.576;13.568;2023-01-30T00:40:12;8.82;;;7.30;;
9409;SDS011;4744;52.576;13.568;2023-01-30T00:42:38;7.70;;;6.90;;
9409;SDS011;4744;52.576;13.568;2023-01-30T00:45:23;9.45;;;7.70;;
9409;SDS011;4744;52.576;13.568;2023-01-30T00:48:07;9.25;;;7.82;;
9409;SDS011;4744;52.576;13.568;2023-01-30T00:50:34;8.20;;;7.25;;
9409;SDS011;4744;52.576;13.568;2023-01-30T00:53:08;9.38;;;8.13;;
9409;SDS011;4744;52.576;13.568;2023-01-30T00:55:37;9.13;;;7.53;;
9409;SDS011;4744;52.576;13.568;2023-01-30T00:58:04;8.07;;;7.20;;
9409;SDS011;4744;52.576;13.568;2023-01-30T01:00:32;8.68;;;7.57;;
9409;SDS011;4744;52.576;13.568;2023-01-30T01:02:59;9.38;;;8.20;;
9409;SDS011;4744;52.576;13.568;2023-01-30T01:05:26;9.45;;;8.05;;
9409;SDS011;4744;52.576;13.568;2023-01-30T01:07:53;9.13;;;8.05;;
9409;SDS011;4744;52.576;13.568;2023-01-30T01:10:21;9.90;;;8.25;;
9409;SDS011;4744;52.576;13.568;2023-01-30T01:12:49;8.02;;;7.22;;
9409;SDS011;4744;52.576;13.568;2023-01-30T01:15:17;9.57;;;8.15;;
9409;SDS011;4744;52.576;13.568;2023-01-30T01:17:45;11.27;;;8.15;;
9409;SDS011;4744;52.576;13.568;2023-01-30T01:20:12;10.07;;;8.43;;
9409;SDS011;4744;52.576;13.568;2023-01-30T01:22:39;10.45;;;8.10;;
9409;SDS011;4744;52.576;13.568;2023-01-30T01:25:07;9.45;;;8.40;;
9409;SDS011;4744;52.576;13.568;2023-01-30T01:27:35;10.25;;;8.60;;
9409;SDS011;4744;52.576;13.568;2023-01-30T01:30:04;10.60;;;9.20;;
9409;SDS011;4744;52.576;13.568;2023-01-30T01:32:32;9.05;;;8.15;;
9409;SDS011;4744;52.576;13.568;2023-01-30T01:34:59;11.02;;;8.95;;
9409;SDS011;4744;52.576;13.568;2023-01-30T01:37:26;10.10;;;8.38;;
9409;SDS011;4744;52.576;13.568;2023-01-30T01:39:53;11.10;;;9.05;;
9409;SDS011;4744;52.576;13.568;2023-01-30T01:42:37;10.32;;;8.38;;
9409;SDS011;4744;52.576;13.568;2023-01-30T01:45:17;10.38;;;9.20;;
9409;SDS011;4744;52.576;13.568;2023-01-30T01:47:46;10.50;;;8.57;;
9409;SDS011;4744;52.576;13.568;2023-01-30T01:50:20;10.18;;;8.68;;
9409;SDS011;4744;52.576;13.568;2023-01-30T01:52:51;9.93;;;8.80;;
9409;SDS011;4744;52.576;13.568;2023-01-30T01:55:21;10.48;;;9.38;;
9409;SDS011;4744;52.576;13.568;2023-01-30T01:57:50;10.55;;;8.88;;
9409;SDS011;4744;52.576;13.568;2023-01-30T02:00:21;13.40;;;9.15;;
9409;SDS011;4744;52.576;13.568;2023-01-30T02:02:50;9.50;;;8.50;;
9409;SDS011;4744;52.576;13.568;2023-01-30T02:05:21;11.25;;;9.10;;
9409;SDS011;4744;52.576;13.568;2023-01-30T02:07:50;12.20;;;9.43;;
9409;SDS011;4744;52.576;13.568;2023-01-30T02:10:19;12.32;;;10.02;;
9409;SDS011;4744;52.576;13.568;2023-01-30T02:12:50;10.18;;;9.07;;
9409;SDS011;4744;52.576;13.568;2023-01-30T02:15:18;11.55;;;9.93;;
9409;SDS011;4744;52.576;13.568;2023-01-30T02:17:46;11.00;;;9.63;;
9409;SDS011;4744;52.576;13.568;2023-01-30T02:20:15;12.10;;;9.70;;
9409;SDS011;4744;52.576;13.568;2023-01-30T02:23:00;11.85;;;10.10;;
9409;SDS011;4744;52.576;13.568;2023-01-30T02:26:08;11.38;;;10.15;;
9409;SDS011;4744;52.576;13.568;2023-01-30T02:29:03;11.45;;;9.93;;
9409;SDS011;4744;52.576;13.568;2023-01-30T02:31:53;11.90;;;10.25;;
9409;SDS011;4744;52.576;13.568;2023-01-30T02:34:30;12.70;;;10.30;;
9409;SDS011;4744;52.576;13.568;2023-01-30T02:37:13;13.48;;;10.57;;
9409;SDS011;4744;52.576;13.568;2023-01-30T02:39:49;12.80;;;10.85;;
9409;SDS011;4744;52.576;13.568;2023-01-30T02:42:29;12.32;;;10.60;;
9409;SDS011;4744;52.576;13.568;2023-01-30T02:45:04;12.85;;;10.52;;
9409;SDS011;4744;52.576;13.568;2023-01-30T02:47:39;13.27;;;10.65;;
9409;SDS011;4744;52.576;13.568;2023-01-30T02:50:13;13.40;;;10.30;;
9409;SDS011;4744;52.576;13.568;2023-01-30T02:52:44;13.02;;;10.57;;
9409;SDS011;4744;52.576;13.568;2023-01-30T02:55:16;13.68;;;11.23;;
9409;SDS011;4744;52.576;13.568;2023-01-30T02:57:45;13.57;;;11.45;;
9409;SDS011;4744;52.576;13.568;2023-01-30T03:00:12;14.70;;;11.50;;
9409;SDS011;4744;52.576;13.568;2023-01-30T03:05:46;14.15;;;11.27;;
9409;SDS011;4744;52.576;13.568;2023-01-30T03:08:33;15.55;;;11.48;;
9409;SDS011;4744;52.576;13.568;2023-01-30T03:11:08;14.70;;;11.32;;
9409;SDS011;4744;52.576;13.568;2023-01-30T03:13:39;16.45;;;11.75;;
9409;SDS011;4744;52.576;13.568;2023-01-30T03:16:15;16.17;;;11.82;;
9409;SDS011;4744;52.576;13.568;2023-01-30T03:18:47;15.15;;;12.25;;
9409;SDS011;4744;52.576;13.568;2023-01-30T03:21:15;14.50;;;11.32;;
9409;SDS011;4744;52.576;13.568;2023-01-30T03:23:43;15.73;;;11.65;;
9409;SDS011;4744;52.576;13.568;2023-01-30T03:26:12;14.50;;;11.13;;
9409;SDS011;4744;52.576;13.568;2023-01-30T03:28:43;14.48;;;12.13;;
9409;SDS011;4744;52.576;13.568;2023-01-30T03:31:11;14.13;;;11.05;;
9409;SDS011;4744;52.576;13.568;2023-01-30T03:33:39;16.20;;;12.40;;
9409;SDS011;4744;52.576;13.568;2023-01-30T03:36:08;13.27;;;11.18;;
9409;SDS011;4744;52.576;13.568;2023-01-30T03:38:35;13.77;;;11.55;;
9409;SDS011;4744;52.576;13.568;2023-01-30T03:41:03;14.80;;;11.80;;
9409;SDS011;4744;52.576;13.568;2023-01-30T03:43:30;13.88;;;11.73;;
9409;SDS011;4744;52.576;13.568;2023-01-30T03:45:57;13.02;;;11.00;;
9409;SDS011;4744;52.576;13.568;2023-01-30T03:48:24;13.30;;;11.27;;
9409;SDS011;4744;52.576;13.568;2023-01-30T03:50:52;14.73;;;11.20;;
9409;SDS011;4744;52.576;13.568;2023-01-30T03:53:20;14.15;;;11.13;;
9409;SDS011;4744;52.576;13.568;2023-01-30T03:55:47;14.35;;;11.88;;
9409;SDS011;4744;52.576;13.568;2023-01-30T03:58:14;13.43;;;11.05;;
9409;SDS011;4744;52.576;13.568;2023-01-30T04:00:41;15.45;;;11.50;;
9409;SDS011;4744;52.576;13.568;2023-01-30T04:03:08;14.60;;;11.40;;
9409;SDS011;4744;52.576;13.568;2023-01-30T04:05:35;14.43;;;11.32;;
9409;SDS011;4744;52.576;13.568;2023-01-30T04:08:02;14.45;;;11.38;;
9409;SDS011;4744;52.576;13.568;2023-01-30T04:10:31;12.73;;;11.20;;
9409;SDS011;4744;52.576;13.568;2023-01-30T04:12:57;13.85;;;11.75;;
9409;SDS011;4744;52.576;13.568;2023-01-30T04:15:24;13.90;;;11.23;;
9409;SDS011;4744;52.576;13.568;2023-01-30T04:17:51;13.55;;;11.23;;
9409;SDS011;4744;52.576;13.568;2023-01-30T04:20:18;13.20;;;11.52;;
9409;SDS011;4744;52.576;13.568;2023-01-30T04:22:45;14.10;;;11.30;;
9409;SDS011;4744;52.576;13.568;2023-01-30T04:25:12;12.55;;;10.65;;
9409;SDS011;4744;52.576;13.568;2023-01-30T04:27:40;13.98;;;11.77;;
9409;SDS011;4744;52.576;13.568;2023-01-30T04:30:09;13.82;;;10.38;;
9409;SDS011;4744;52.576;13.568;2023-01-30T04:32:36;14.10;;;11.75;;
9409;SDS011;4744;52.576;13.568;2023-01-30T04:35:03;14.48;;;11.60;;
9409;SDS011;4744;52.576;13.568;2023-01-30T04:37:30;13.60;;;11.45;;
9409;SDS011;4744;52.576;13.568;2023-01-30T04:39:57;14.35;;;11.25;;
9409;SDS011;4744;52.576;13.568;2023-01-30T04:42:24;14.48;;;11.15;;
9409;SDS011;4744;52.576;13.568;2023-01-30T04:44:52;11.65;;;10.38;;
9409;SDS011;4744;52.576;13.568;2023-01-30T04:47:19;14.13;;;11.68;;
9409;SDS011;4744;52.576;13.568;2023-01-30T04:49:46;14.23;;;10.52;;
9409;SDS011;4744;52.576;13.568;2023-01-30T04:52:13;12.25;;;10.77;;
9409;SDS011;4744;52.576;13.568;2023-01-30T04:54:40;13.13;;;10.45;;
9409;SDS011;4744;52.576;13.568;2023-01-30T04:57:07;15.25;;;11.10;;
9409;SDS011;4744;52.576;13.568;2023-01-30T04:59:34;15.13;;;11.07;;
9409;SDS011;4744;52.576;13.568;2023-01-30T05:02:02;13.70;;;11.45;;
9409;SDS011;4744;52.576;13.568;2023-01-30T05:04:29;15.55;;;10.90;;
9409;SDS011;4744;52.576;13.568;2023-01-30T05:06:56;13.68;;;10.82;;
9409;SDS011;4744;52.576;13.568;2023-01-30T05:09:23;13.73;;;10.98;;
9409;SDS011;4744;52.576;13.568;2023-01-30T05:11:50;14.38;;;10.93;;
9409;SDS011;4744;52.576;13.568;2023-01-30T05:14:17;14.32;;;11.70;;
9409;SDS011;4744;52.576;13.568;2023-01-30T05:16:44;16.95;;;12.70;;
9409;SDS011;4744;52.576;13.568;2023-01-30T05:19:12;14.13;;;11.63;;
9409;SDS011;4744;52.576;13.568;2023-01-30T05:21:39;13.25;;;11.38;;
9409;SDS011;4744;52.576;13.568;2023-01-30T05:24:06;14.57;;;11.95;;
9409;SDS011;4744;52.576;13.568;2023-01-30T05:26:33;16.55;;;11.50;;
9409;SDS011;4744;52.576;13.568;2023-01-30T05:29:00;15.90;;;11.75;;
9409;SDS011;4744;52.576;13.568;2023-01-30T05:31:27;15.85;;;11.32;;
9409;SDS011;4744;52.576;13.568;2023-01-30T05:33:54;15.48;;;11.55;;
9409;SDS011;4744;52.576;13.568;2023-01-30T05:36:22;15.70;;;12.73;;
9409;SDS011;4744;52.576;13.568;2023-01-30T05:38:49;14.82;;;11.77;;
9409;SDS011;4744;52.576;13.568;2023-01-30T05:41:16;14.10;;;11.85;;
9409;SDS011;4744;52.576;13.568;2023-01-30T05:43:47;16.10;;;12.15;;
9409;SDS011;4744;52.576;13.568;2023-01-30T05:46:14;16.85;;;12.32;;
9409;SDS011;4744;52.576;13.568;2023-01-30T05:48:41;15.93;;;12.65;;
9409;SDS011;4744;52.576;13.568;2023-01-30T05:51:13;16.00;;;12.50;;
9409;SDS011;4744;52.576;13.568;2023-01-30T05:53:43;16.50;;;12.48;;
9409;SDS011;4744;52.576;13.568;2023-01-30T05:56:10;14.50;;;12.15;;
9409;SDS011;4744;52.576;13.568;2023-01-30T05:58:37;14.00;;;11.35;;
9409;SDS011;4744;52.576;13.568;2023-01-30T06:01:05;14.70;;;11.68;;
9409;SDS011;4744;52.576;13.568;2023-01-30T06:03:33;12.70;;;11.13;;
9409;SDS011;4744;52.576;13.568;2023-01-30T06:06:01;14.40;;;11.93;;
9409;SDS011;4744;52.576;13.568;2023-01-30T06:08:28;14.90;;;11.52;;
9409;SDS011;4744;52.576;13.568;2023-01-30T06:10:59;15.57;;;11.60;;
9409;SDS011;4744;52.576;13.568;2023-01-30T06:13:27;14.57;;;11.98;;
9409;SDS011;4744;52.576;13.568;2023-01-30T06:15:54;16.27;;;11.90;;
9409;SDS011;4744;52.576;13.568;2023-01-30T06:18:21;17.90;;;12.65;;
9409;SDS011;4744;52.576;13.568;2023-01-30T06:20:48;14.27;;;11.77;;
9409;SDS011;4744;52.576;13.568;2023-01-30T06:23:17;14.20;;;11.45;;
9409;SDS011;4744;52.576;13.568;2023-01-30T06:25:44;13.57;;;10.93;;
9409;SDS011;4744;52.576;13.568;2023-01-30T06:28:14;14.23;;;11.73;;
9409;SDS011;4744;52.576;13.568;2023-01-30T06:30:43;13.75;;;11.68;;
9409;SDS011;4744;52.576;13.568;2023-01-30T06:33:10;16.10;;;11.68;;
9409;SDS011;4744;52.576;13.568;2023-01-30T06:35:38;15.13;;;12.05;;
9409;SDS011;4744;52.576;13.568;2023-01-30T06:38:05;16.40;;;12.13;;
9409;SDS011;4744;52.576;13.568;2023-01-30T06:40:35;15.90;;;12.02;;
9409;SDS011;4744;52.576;13.568;2023-01-30T06:43:02;13.85;;;11.73;;
9409;SDS011;4744;52.576;13.568;2023-01-30T06:45:31;15.77;;;12.43;;
9409;SDS011;4744;52.576;13.568;2023-01-30T06:47:58;16.08;;;11.95;;
9409;SDS011;4744;52.576;13.568;2023-01-30T06:50:25;16.25;;;12.07;;
9409;SDS011;4744;52.576;13.568;2023-01-30T06:52:53;13.90;;;11.18;;
9409;SDS011;4744;52.576;13.568;2023-01-30T06:55:21;15.30;;;12.00;;
9409;SDS011;4744;52.576;13.568;2023-01-30T06:57:50;14.45;;;11.68;;
9409;SDS011;4744;52.576;13.568;2023-01-30T07:00:26;15.27;;;11.52;;
9409;SDS011;4744;52.576;13.568;2023-01-30T07:02:55;14.45;;;11.25;;
9409;SDS011;4744;52.576;13.568;2023-01-30T07:05:22;13.43;;;10.73;;
9409;SDS011;4744;52.576;13.568;2023-01-30T07:07:49;12.98;;;11.25;;
9409;SDS011;4744;52.576;13.568;2023-01-30T07:10:16;14.82;;;10.95;;
9409;SDS011;4744;52.576;13.568;2023-01-30T07:12:43;12.57;;;10.05;;
9409;SDS011;4744;52.576;13.568;2023-01-30T07:15:11;12.77;;;10.68;;
9409;SDS011;4744;52.576;13.568;2023-01-30T07:17:38;13.07;;;10.77;;
9409;SDS011;4744;52.576;13.568;2023-01-30T07:20:08;12.50;;;10.43;;
9409;SDS011;4744;52.576;13.568;2023-01-30T07:22:36;11.07;;;9.30;;
9409;SDS011;4744;52.576;13.568;2023-01-30T07:25:03;10.05;;;8.90;;
9409;SDS011;4744;52.576;13.568;2023-01-30T07:27:31;11.85;;;8.98;;
9409;SDS011;4744;52.576;13.568;2023-01-30T07:29:58;10.10;;;8.55;;
9409;SDS011;4744;52.576;13.568;2023-01-30T07:32:25;9.65;;;8.25;;
9409;SDS011;4744;52.576;13.568;2023-01-30T07:34:52;9.30;;;8.05;;
9409;SDS011;4744;52.576;13.568;2023-01-30T07:37:20;9.57;;;8.30;;
9409;SDS011;4744;52.576;13.568;2023-01-30T07:39:47;11.80;;;8.57;;
9409;SDS011;4744;52.576;13.568;2023-01-30T07:42:14;9.73;;;7.95;;
9409;SDS011;4744;52.576;13.568;2023-01-30T07:44:41;9.93;;;8.80;;
9409;SDS011;4744;52.576;13.568;2023-01-30T07:47:07;9.35;;;8.25;;
9409;SDS011;4744;52.576;13.568;2023-01-30T07:49:34;9.95;;;8.27;;
9409;SDS011;4744;52.576;13.568;2023-01-30T07:52:01;8.85;;;7.75;;
9409;SDS011;4744;52.576;13.568;2023-01-30T07:54:30;9.35;;;8.25;;
9409;SDS011;4744;52.576;13.568;2023-01-30T07:56:56;9.15;;;8.00;;
9409;SDS011;4744;52.576;13.568;2023-01-30T07:59:23;10.07;;;8.55;;
9409;SDS011;4744;52.576;13.568;2023-01-30T08:01:51;10.20;;;7.85;;
9409;SDS011;4744;52.576;13.568;2023-01-30T08:04:18;8.18;;;7.38;;
9409;SDS011;4744;52.576;13.568;2023-01-30T08:06:45;8.65;;;7.05;;
9409;SDS011;4744;52.576;13.568;2023-01-30T08:09:12;8.70;;;6.72;;
9409;SDS011;4744;52.576;13.568;2023-01-30T08:11:40;6.90;;;6.20;;
9409;SDS011;4744;52.576;13.568;2023-01-30T08:14:07;7.10;;;6.40;;
9409;SDS011;4744;52.576;13.568;2023-01-30T08:16:34;6.78;;;6.07;;
9409;SDS011;4744;52.576;13.568;2023-01-30T08:19:03;7.07;;;6.18;;
9409;SDS011;4744;52.576;13.568;2023-01-30T08:21:31;7.43;;;6.57;;
9409;SDS011;4744;52.576;13.568;2023-01-30T08:23:58;6.28;;;5.68;;
9409;SDS011;4744;52.576;13.568;2023-01-30T08:26:25;6.00;;;5.40;;
9409;SDS011;4744;52.576;13.568;2023-01-30T08:28:53;6.85;;;6.15;;
9409;SDS011;4744;52.576;13.568;2023-01-30T08:31:21;6.65;;;6.00;;
9409;SDS011;4744;52.576;13.568;2023-01-30T08:33:48;6.30;;;5.70;;
9409;SDS011;4744;52.576;13.568;2023-01-30T08:36:14;5.85;;;5.20;;
9409;SDS011;4744;52.576;13.568;2023-01-30T08:38:42;6.20;;;5.60;;
9409;SDS011;4744;52.576;13.568;2023-01-30T08:41:08;6.18;;;5.57;;
9409;SDS011;4744;52.576;13.568;2023-01-30T08:43:35;5.70;;;5.18;;
9409;SDS011;4744;52.576;13.568;2023-01-30T08:46:04;5.95;;;5.38;;
9409;SDS011;4744;52.576;13.568;2023-01-30T08:48:31;6.05;;;5.43;;
9409;SDS011;4744;52.576;13.568;2023-01-30T08:50:58;7.80;;;5.82;;
9409;SDS011;4744;52.576;13.568;2023-01-30T08:53:25;7.38;;;6.68;;
9409;SDS011;4744;52.576;13.568;2023-01-30T08:55:52;6.72;;;5.95;;
9409;SDS011;4744;52.576;13.568;2023-01-30T08:58:19;6.82;;;6.13;;
9409;SDS011;4744;52.576;13.568;2023-01-30T09:00:47;8.60;;;6.65;;
9409;SDS011;4744;52.576;13.568;2023-01-30T09:03:15;6.22;;;5.38;;
9409;SDS011;4744;52.576;13.568;2023-01-30T09:05:43;6.32;;;5.13;;
9409;SDS011;4744;52.576;13.568;2023-01-30T09:08:10;6.35;;;4.97;;
9409;SDS011;4744;52.576;13.568;2023-01-30T09:10:37;6.93;;;5.25;;
9409;SDS011;4744;52.576;13.568;2023-01-30T09:13:06;5.90;;;5.15;;
9409;SDS011;4744;52.576;13.568;2023-01-30T09:15:34;5.85;;;5.25;;
9409;SDS011;4744;52.576;13.568;2023-01-30T09:18:01;5.85;;;4.50;;
9409;SDS011;4744;52.576;13.568;2023-01-30T09:20:30;5.60;;;4.55;;
9409;SDS011;4744;52.576;13.568;2023-01-30T09:22:57;4.25;;;3.80;;
9409;SDS011;4744;52.576;13.568;2023-01-30T09:25:24;5.20;;;3.80;;
9409;SDS011;4744;52.576;13.568;2023-01-30T09:27:51;4.97;;;3.60;;
9409;SDS011;4744;52.576;13.568;2023-01-30T09:30:19;4.10;;;3.55;;
9409;SDS011;4744;52.576;13.568;2023-01-30T09:32:46;5.53;;;4.00;;
9409;SDS011;4744;52.576;13.568;2023-01-30T09:35:13;4.85;;;3.70;;
9409;SDS011;4744;52.576;13.568;2023-01-30T09:37:47;5.38;;;3.83;;
9409;SDS011;4744;52.576;13.568;2023-01-30T09:40:14;4.90;;;3.42;;
9409;SDS011;4744;52.576;13.568;2023-01-30T09:42:58;5.03;;;3.63;;
9409;SDS011;4744;52.576;13.568;2023-01-30T09:45:37;4.38;;;3.42;;
9409;SDS011;4744;52.576;13.568;2023-01-30T09:48:18;5.53;;;3.63;;
9409;SDS011;4744;52.576;13.568;2023-01-30T09:53:53;5.20;;;2.72;;
9409;SDS011;4744;52.576;13.568;2023-01-30T09:56:29;4.80;;;2.60;;
9409;SDS011;4744;52.576;13.568;2023-01-30T09:58:57;8.55;;;2.60;;
9409;SDS011;4744;52.576;13.568;2023-01-30T10:01:28;4.65;;;2.33;;
9409;SDS011;4744;52.576;13.568;2023-01-30T10:04:04;4.72;;;2.83;;
9409;SDS011;4744;52.576;13.568;2023-01-30T10:06:40;5.88;;;2.38;;
9409;SDS011;4744;52.576;13.568;2023-01-30T10:09:18;2.58;;;2.00;;
9409;SDS011;4744;52.576;13.568;2023-01-30T10:11:59;5.03;;;2.15;;
9409;SDS011;4744;52.576;13.568;2023-01-30T10:17:50;3.42;;;1.85;;
9409;SDS011;4744;52.576;13.568;2023-01-30T10:20:30;4.70;;;1.92;;
9409;SDS011;4744;52.576;13.568;2023-01-30T10:23:11;4.60;;;1.98;;
9409;SDS011;4744;52.576;13.568;2023-01-30T10:25:52;4.90;;;1.75;;
9409;SDS011;4744;52.576;13.568;2023-01-30T10:28:23;4.72;;;2.10;;
9409;SDS011;4744;52.576;13.568;2023-01-30T10:30:54;4.72;;;1.55;;
9409;SDS011;4744;52.576;13.568;2023-01-30T10:33:29;5.03;;;1.80;;
9409;SDS011;4744;52.576;13.568;2023-01-30T10:36:01;5.85;;;1.90;;
9409;SDS011;4744;52.576;13.568;2023-01-30T10:38:33;6.68;;;2.15;;
9409;SDS011;4744;52.576;13.568;2023-01-30T10:41:06;4.38;;;1.70;;
9409;SDS011;4744;52.576;13.568;2023-01-30T10:43:40;8.50;;;1.92;;
9409;SDS011;4744;52.576;13.568;2023-01-30T10:46:15;8.70;;;2.20;;
9409;SDS011;4744;52.576;13.568;2023-01-30T10:48:53;8.13;;;1.98;;
9409;SDS011;4744;52.576;13.568;2023-01-30T10:51:28;8.73;;;2.42;;
9409;SDS011;4744;52.576;13.568;2023-01-30T10:54:08;7.93;;;2.30;;
9409;SDS011;4744;52.576;13.568;2023-01-30T10:56:43;9.43;;;2.08;;
9409;SDS011;4744;52.576;13.568;2023-01-30T10:59:19;6.60;;;2.22;;
9409;SDS011;4744;52.576;13.568;2023-01-30T11:01:51;8.48;;;2.35;;
9409;SDS011;4744;52.576;13.568;2023-01-30T11:04:32;7.03;;;2.10;;
9409;SDS011;4744;52.576;13.568;2023-01-30T11:07:03;6.97;;;2.28;;
9409;SDS011;4744;52.576;13.568;2023-01-30T11:09:39;10.07;;;2.55;;
9409;SDS011;4744;52.576;13.568;2023-01-30T11:12:08;11.88;;;2.55;;
9409;SDS011;4744;52.576;13.568;2023-01-30T11:14:48;11.77;;;2.65;;
9409;SDS011;4744;52.576;13.568;2023-01-30T11:17:17;6.45;;;2.03;;
9409;SDS011;4744;52.576;13.568;2023-01-30T11:19:44;4.78;;;2.00;;
9409;SDS011;4744;52.576;13.568;2023-01-30T11:22:19;9.23;;;2.78;;
9409;SDS011;4744;52.576;13.568;2023-01-30T11:24:46;8.75;;;2.28;;
9409;SDS011;4744;52.576;13.568;2023-01-30T11:27:16;8.65;;;2.33;;
9409;SDS011;4744;52.576;13.568;2023-01-30T11:29:49;10.35;;;2.75;;
9409;SDS011;4744;52.576;13.568;2023-01-30T11:32:27;7.30;;;2.30;;
9409;SDS011;4744;52.576;13.568;2023-01-30T11:35:00;9.82;;;2.55;;
9409;SDS011;4744;52.576;13.568;2023-01-30T11:37:30;9.68;;;2.38;;
9409;SDS011;4744;52.576;13.568;2023-01-30T11:39:58;9.60;;;2.45;;
9409;SDS011;4744;52.576;13.568;2023-01-30T11:42:34;10.35;;;2.22;;
9409;SDS011;4744;52.576;13.568;2023-01-30T11:45:01;7.85;;;2.63;;
9409;SDS011;4744;52.576;13.568;2023-01-30T11:47:28;5.93;;;2.25;;
9409;SDS011;4744;52.576;13.568;2023-01-30T11:49:55;8.05;;;2.30;;
9409;SDS011;4744;52.576;13.568;2023-01-30T11:52:27;9.07;;;2.40;;
9409;SDS011;4744;52.576;13.568;2023-01-30T11:54:57;9.25;;;2.10;;
9409;SDS011;4744;52.576;13.568;2023-01-30T11:57:29;6.97;;;2.33;;
9409;SDS011;4744;52.576;13.568;2023-01-30T12:00:11;8.15;;;2.33;;
9409;SDS011;4744;52.576;13.568;2023-01-30T12:02:42;8.32;;;2.60;;
9409;SDS011;4744;52.576;13.568;2023-01-30T12:05:16;11.82;;;2.67;;
9409;SDS011;4744;52.576;13.568;2023-01-30T12:07:47;8.75;;;2.45;;
9409;SDS011;4744;52.576;13.568;2023-01-30T12:10:24;5.35;;;1.65;;
9409;SDS011;4744;52.576;13.568;2023-01-30T12:12:55;6.05;;;1.50;;
9409;SDS011;4744;52.576;13.568;2023-01-30T12:15:26;6.18;;;1.27;;
9409;SDS011;4744;52.576;13.568;2023-01-30T12:17:56;4.80;;;1.40;;
9409;SDS011;4744;52.576;13.568;2023-01-30T12:20:31;6.53;;;1.58;;
9409;SDS011;4744;52.576;13.568;2023-01-30T12:23:13;6.72;;;1.50;;
9409;SDS011;4744;52.576;13.568;2023-01-30T12:25:46;4.68;;;1.73;;
9409;SDS011;4744;52.576;13.568;2023-01-30T12:28:23;7.55;;;1.92;;
9409;SDS011;4744;52.576;13.568;2023-01-30T12:30:56;5.55;;;2.20;;
9409;SDS011;4744;52.576;13.568;2023-01-30T12:33:29;5.07;;;1.80;;
9409;SDS011;4744;52.576;13.568;2023-01-30T12:36:00;4.65;;;1.63;;
9409;SDS011;4744;52.576;13.568;2023-01-30T12:38:40;6.07;;;1.90;;
9409;SDS011;4744;52.576;13.568;2023-01-30T12:41:23;6.32;;;2.08;;
9409;SDS011;4744;52.576;13.568;2023-01-30T12:44:12;5.95;;;2.25;;
9409;SDS011;4744;52.576;13.568;2023-01-30T12:46:50;8.45;;;2.25;;
9409;SDS011;4744;52.576;13.568;2023-01-30T12:49:31;8.68;;;2.17;;
9409;SDS011;4744;52.576;13.568;2023-01-30T12:52:14;7.82;;;2.17;;
9409;SDS011;4744;52.576;13.568;2023-01-30T12:54:59;5.68;;;2.10;;
9409;SDS011;4744;52.576;13.568;2023-01-30T12:57:31;9.13;;;2.28;;
9409;SDS011;4744;52.576;13.568;2023-01-30T13:00:08;9.13;;;2.30;;
9409;SDS011;4744;52.576;13.568;2023-01-30T13:02:51;6.72;;;2.15;;
9409;SDS011;4744;52.576;13.568;2023-01-30T13:05:33;7.20;;;2.42;;
9409;SDS011;4744;52.576;13.568;2023-01-30T13:08:09;9.48;;;2.78;;
9409;SDS011;4744;52.576;13.568;2023-01-30T13:10:47;8.82;;;2.33;;
9409;SDS011;4744;52.576;13.568;2023-01-30T13:13:21;6.63;;;2.03;;
9409;SDS011;4744;52.576;13.568;2023-01-30T13:16:00;6.85;;;2.25;;
9409;SDS011;4744;52.576;13.568;2023-01-30T13:18:31;7.35;;;2.80;;
9409;SDS011;4744;52.576;13.568;2023-01-30T13:21:05;6.25;;;2.05;;
9409;SDS011;4744;52.576;13.568;2023-01-30T13:23:42;8.15;;;2.40;;
9409;SDS011;4744;52.576;13.568;2023-01-30T13:26:20;6.32;;;1.88;;
9409;SDS011;4744;52.576;13.568;2023-01-30T13:28:54;7.75;;;2.33;;
9409;SDS011;4744;52.576;13.568;2023-01-30T13:31:25;5.88;;;2.10;;
9409;SDS011;4744;52.576;13.568;2023-01-30T13:33:55;8.48;;;2.55;;
9409;SDS011;4744;52.576;13.568;2023-01-30T13:36:32;7.82;;;2.38;;
9409;SDS011;4744;52.576;13.568;2023-01-30T13:39:09;6.78;;;1.92;;
9409;SDS011;4744;52.576;13.568;2023-01-30T13:41:41;8.93;;;1.92;;
9409;SDS011;4744;52.576;13.568;2023-01-30T13:44:14;6.97;;;2.60;;
9409;SDS011;4744;52.576;13.568;2023-01-30T13:46:45;9.13;;;1.83;;
9409;SDS011;4744;52.576;13.568;2023-01-30T13:49:14;8.65;;;2.08;;
9409;SDS011;4744;52.576;13.568;2023-01-30T13:51:48;5.05;;;1.77;;
9409;SDS011;4744;52.576;13.568;2023-01-30T13:54:26;6.43;;;1.80;;
9409;SDS011;4744;52.576;13.568;2023-01-30T13:57:04;9.30;;;2.03;;
9409;SDS011;4744;52.576;13.568;2023-01-30T13:59:48;5.25;;;1.90;;
9409;SDS011;4744;52.576;13.568;2023-01-30T14:02:32;5.43;;;2.13;;
9409;SDS011;4744;52.576;13.568;2023-01-30T14:04:59;6.45;;;1.88;;
9409;SDS011;4744;52.576;13.568;2023-01-30T14:07:28;9.20;;;1.92;;
9409;SDS011;4744;52.576;13.568;2023-01-30T14:10:05;4.50;;;1.70;;
9409;SDS011;4744;52.576;13.568;2023-01-30T14:12:39;4.78;;;1.50;;
9409;SDS011;4744;52.576;13.568;2023-01-30T14:15:20;8.75;;;1.80;;
9409;SDS011;4744;52.576;13.568;2023-01-30T14:17:57;9.15;;;1.80;;
9409;SDS011;4744;52.576;13.568;2023-01-30T14:20:26;1.55;;;1.30;;
9409;SDS011;4744;52.576;13.568;2023-01-30T14:22:55;1.58;;;1.23;;
9409;SDS011;4744;52.576;13.568;2023-01-30T14:37:26;2.17;;;1.25;;
9409;SDS011;4744;52.576;13.568;2023-01-30T14:40:26;3.05;;;1.27;;
9409;SDS011;4744;52.576;13.568;2023-01-30T14:45:53;2.22;;;1.30;;
9409;SDS011;4744;52.576;13.568;2023-01-30T14:48:25;2.00;;;1.20;;
9409;SDS011;4744;52.576;13.568;2023-01-30T14:53:48;2.42;;;0.95;;
9409;SDS011;4744;52.576;13.568;2023-01-30T14:56:18;2.88;;;1.10;;
9409;SDS011;4744;52.576;13.568;2023-01-30T14:58:59;2.38;;;1.33;;
9409;SDS011;4744;52.576;13.568;2023-01-30T15:01:29;3.72;;;1.20;;
9409;SDS011;4744;52.576;13.568;2023-01-30T15:04:19;3.10;;;1.10;;
9409;SDS011;4744;52.576;13.568;2023-01-30T15:06:48;3.95;;;1.40;;
9409;SDS011;4744;52.576;13.568;2023-01-30T15:09:15;4.07;;;1.15;;
9409;SDS011;4744;52.576;13.568;2023-01-30T15:11:43;4.10;;;1.17;;
9409;SDS011;4744;52.576;13.568;2023-01-30T15:14:19;1.35;;;1.00;;
9409;SDS011;4744;52.576;13.568;2023-01-30T15:16:57;3.20;;;1.20;;
9409;SDS011;4744;52.576;13.568;2023-01-30T15:19:38;3.03;;;1.45;;
9409;SDS011;4744;52.576;13.568;2023-01-30T15:22:18;3.08;;;1.10;;
9409;SDS011;4744;52.576;13.568;2023-01-30T15:27:52;1.80;;;1.10;;
9409;SDS011;4744;52.576;13.568;2023-01-30T15:30:29;3.45;;;1.10;;
9409;SDS011;4744;52.576;13.568;2023-01-30T15:33:14;3.55;;;1.13;;
9409;SDS011;4744;52.576;13.568;2023-01-30T15:35:43;2.00;;;1.02;;
9409;SDS011;4744;52.576;13.568;2023-01-30T15:38:21;2.13;;;0.95;;
9409;SDS011;4744;52.576;13.568;2023-01-30T15:40:53;1.77;;;1.05;;
9409;SDS011;4744;52.576;13.568;2023-01-30T15:43:29;1.95;;;1.00;;